sensor_id;sensor_type;location;lat;lon;timestamp;P1;durP1;ratioP1;P2;durP2;ratioP2
74162;SDS011;62515;52.758;5.076;2023-10-19T00:01:54;61.83;;;57.22;;
74162;SDS011;62515;52.758;5.076;2023-10-19T00:04:20;56.08;;;51.65;;
74162;SDS011;62515;52.758;5.076;2023-10-19T00:06:47;63.47;;;58.53;;
74162;SDS011;62515;52.758;5.076;2023-10-19T00:09:16;37.38;;;34.03;;
74162;SDS011;62515;52.758;5.076;2023-10-19T00:11:42;50.47;;;46.35;;
74162;SDS011;62515;52.758;5.076;2023-10-19T00:14:09;43.20;;;39.65;;
74162;SDS011;62515;52.758;5.076;2023-10-19T00:16:35;36.50;;;33.38;;
74162;SDS011;62515;52.758;5.076;2023-10-19T00:19:02;47.97;;;44.25;;
74162;SDS011;62515;52.758;5.076;2023-10-19T00:21:29;52.50;;;48.65;;
74162;SDS011;62515;52.758;5.076;2023-10-19T00:23:56;50.55;;;46.65;;
74162;SDS011;62515;52.758;5.076;2023-10-19T00:26:26;31.25;;;28.85;;
74162;SDS011;62515;52.758;5.076;2023-10-19T00:28:57;30.88;;;28.50;;
74162;SDS011;62515;52.758;5.076;2023-10-19T00:31:24;26.70;;;24.17;;
74162;SDS011;62515;52.758;5.076;2023-10-19T00:33:53;25.00;;;22.65;;
74162;SDS011;62515;52.758;5.076;2023-10-19T00:36:20;22.50;;;20.58;;
74162;SDS011;62515;52.758;5.076;2023-10-19T00:38:47;22.33;;;20.40;;
74162;SDS011;62515;52.758;5.076;2023-10-19T00:41:15;18.00;;;16.35;;
74162;SDS011;62515;52.758;5.076;2023-10-19T00:43:44;16.80;;;15.07;;
74162;SDS011;62515;52.758;5.076;2023-10-19T00:46:10;16.38;;;14.20;;
74162;SDS011;62515;52.758;5.076;2023-10-19T00:48:39;18.20;;;16.33;;
74162;SDS011;62515;52.758;5.076;2023-10-19T00:51:09;27.77;;;25.35;;
74162;SDS011;62515;52.758;5.076;2023-10-19T00:53:37;15.93;;;13.13;;
74162;SDS011;62515;52.758;5.076;2023-10-19T00:56:04;15.90;;;13.48;;
74162;SDS011;62515;52.758;5.076;2023-10-19T00:58:34;16.98;;;15.30;;
74162;SDS011;62515;52.758;5.076;2023-10-19T01:01:03;17.25;;;15.48;;
74162;SDS011;62515;52.758;5.076;2023-10-19T01:03:30;15.45;;;13.88;;
74162;SDS011;62515;52.758;5.076;2023-10-19T01:05:57;16.55;;;14.85;;
74162;SDS011;62515;52.758;5.076;2023-10-19T01:08:24;15.43;;;13.85;;
74162;SDS011;62515;52.758;5.076;2023-10-19T01:10:51;16.60;;;14.90;;
74162;SDS011;62515;52.758;5.076;2023-10-19T01:13:19;14.90;;;12.02;;
74162;SDS011;62515;52.758;5.076;2023-10-19T01:15:45;12.98;;;11.57;;
74162;SDS011;62515;52.758;5.076;2023-10-19T01:18:13;14.70;;;13.10;;
74162;SDS011;62515;52.758;5.076;2023-10-19T01:20:40;14.23;;;11.32;;
74162;SDS011;62515;52.758;5.076;2023-10-19T01:23:08;14.98;;;10.93;;
74162;SDS011;62515;52.758;5.076;2023-10-19T01:25:42;14.77;;;12.55;;
74162;SDS011;62515;52.758;5.076;2023-10-19T01:28:09;16.33;;;12.73;;
74162;SDS011;62515;52.758;5.076;2023-10-19T01:30:36;16.48;;;12.18;;
74162;SDS011;62515;52.758;5.076;2023-10-19T01:33:03;14.82;;;13.32;;
74162;SDS011;62515;52.758;5.076;2023-10-19T01:35:30;15.95;;;12.23;;
74162;SDS011;62515;52.758;5.076;2023-10-19T01:37:57;14.88;;;12.50;;
74162;SDS011;62515;52.758;5.076;2023-10-19T01:40:25;14.68;;;13.13;;
74162;SDS011;62515;52.758;5.076;2023-10-19T01:42:52;16.15;;;11.55;;
74162;SDS011;62515;52.758;5.076;2023-10-19T01:45:18;17.35;;;13.10;;
74162;SDS011;62515;52.758;5.076;2023-10-19T01:47:45;14.45;;;11.23;;
74162;SDS011;62515;52.758;5.076;2023-10-19T01:50:12;12.98;;;11.65;;
74162;SDS011;62515;52.758;5.076;2023-10-19T01:52:39;13.13;;;10.75;;
74162;SDS011;62515;52.758;5.076;2023-10-19T01:55:06;18.42;;;12.13;;
74162;SDS011;62515;52.758;5.076;2023-10-19T01:57:34;13.82;;;11.85;;
74162;SDS011;62515;52.758;5.076;2023-10-19T02:00:01;14.70;;;10.73;;
74162;SDS011;62515;52.758;5.076;2023-10-19T02:02:37;15.25;;;12.32;;
74162;SDS011;62515;52.758;5.076;2023-10-19T02:05:04;14.13;;;12.15;;
74162;SDS011;62515;52.758;5.076;2023-10-19T02:07:31;12.82;;;10.77;;
74162;SDS011;62515;52.758;5.076;2023-10-19T02:09:58;15.02;;;11.93;;
74162;SDS011;62515;52.758;5.076;2023-10-19T02:12:25;14.70;;;11.18;;
74162;SDS011;62515;52.758;5.076;2023-10-19T02:14:53;13.60;;;11.23;;
74162;SDS011;62515;52.758;5.076;2023-10-19T02:17:19;15.45;;;11.82;;
74162;SDS011;62515;52.758;5.076;2023-10-19T02:19:46;19.60;;;13.30;;
74162;SDS011;62515;52.758;5.076;2023-10-19T02:22:13;20.13;;;18.23;;
74162;SDS011;62515;52.758;5.076;2023-10-19T02:24:40;17.70;;;12.18;;
74162;SDS011;62515;52.758;5.076;2023-10-19T02:27:07;17.08;;;12.45;;
74162;SDS011;62515;52.758;5.076;2023-10-19T02:29:39;12.75;;;10.85;;
74162;SDS011;62515;52.758;5.076;2023-10-19T02:32:07;12.43;;;10.30;;
74162;SDS011;62515;52.758;5.076;2023-10-19T02:34:33;17.08;;;11.45;;
74162;SDS011;62515;52.758;5.076;2023-10-19T02:37:00;21.00;;;13.43;;
74162;SDS011;62515;52.758;5.076;2023-10-19T02:39:27;15.82;;;12.68;;
74162;SDS011;62515;52.758;5.076;2023-10-19T02:41:53;14.60;;;12.20;;
74162;SDS011;62515;52.758;5.076;2023-10-19T02:44:21;13.93;;;12.35;;
74162;SDS011;62515;52.758;5.076;2023-10-19T02:46:48;16.50;;;13.85;;
74162;SDS011;62515;52.758;5.076;2023-10-19T02:49:18;14.68;;;11.52;;
74162;SDS011;62515;52.758;5.076;2023-10-19T02:51:47;14.48;;;12.85;;
74162;SDS011;62515;52.758;5.076;2023-10-19T02:54:15;16.23;;;13.15;;
74162;SDS011;62515;52.758;5.076;2023-10-19T02:56:43;17.20;;;13.20;;
74162;SDS011;62515;52.758;5.076;2023-10-19T02:59:11;16.90;;;15.10;;
74162;SDS011;62515;52.758;5.076;2023-10-19T03:01:37;17.52;;;14.63;;
74162;SDS011;62515;52.758;5.076;2023-10-19T03:04:04;19.50;;;15.90;;
74162;SDS011;62515;52.758;5.076;2023-10-19T03:06:32;16.88;;;15.02;;
74162;SDS011;62515;52.758;5.076;2023-10-19T03:09:04;17.17;;;14.90;;
74162;SDS011;62515;52.758;5.076;2023-10-19T03:11:32;18.25;;;16.25;;
74162;SDS011;62515;52.758;5.076;2023-10-19T03:13:58;19.98;;;17.90;;
74162;SDS011;62515;52.758;5.076;2023-10-19T03:16:25;19.30;;;17.25;;
74162;SDS011;62515;52.758;5.076;2023-10-19T03:18:52;18.63;;;14.88;;
74162;SDS011;62515;52.758;5.076;2023-10-19T03:21:19;26.90;;;19.23;;
74162;SDS011;62515;52.758;5.076;2023-10-19T03:23:47;21.50;;;19.30;;
74162;SDS011;62515;52.758;5.076;2023-10-19T03:26:14;19.15;;;17.17;;
74162;SDS011;62515;52.758;5.076;2023-10-19T03:28:41;17.77;;;15.73;;
74162;SDS011;62515;52.758;5.076;2023-10-19T03:31:07;15.98;;;13.52;;
74162;SDS011;62515;52.758;5.076;2023-10-19T03:33:34;22.33;;;17.40;;
74162;SDS011;62515;52.758;5.076;2023-10-19T03:36:01;22.13;;;16.05;;
74162;SDS011;62515;52.758;5.076;2023-10-19T03:38:28;21.80;;;16.42;;
74162;SDS011;62515;52.758;5.076;2023-10-19T03:40:57;19.58;;;14.68;;
74162;SDS011;62515;52.758;5.076;2023-10-19T03:43:24;20.85;;;16.60;;
74162;SDS011;62515;52.758;5.076;2023-10-19T03:45:50;18.08;;;15.50;;
74162;SDS011;62515;52.758;5.076;2023-10-19T03:48:18;18.85;;;15.70;;
74162;SDS011;62515;52.758;5.076;2023-10-19T03:50:46;22.67;;;18.70;;
74162;SDS011;62515;52.758;5.076;2023-10-19T03:53:16;27.05;;;17.73;;
74162;SDS011;62515;52.758;5.076;2023-10-19T03:55:43;22.75;;;18.25;;
74162;SDS011;62515;52.758;5.076;2023-10-19T03:58:11;25.38;;;16.60;;
74162;SDS011;62515;52.758;5.076;2023-10-19T04:00:38;25.20;;;18.05;;
74162;SDS011;62515;52.758;5.076;2023-10-19T04:03:05;26.60;;;20.60;;
74162;SDS011;62515;52.758;5.076;2023-10-19T04:05:31;29.27;;;18.58;;
74162;SDS011;62515;52.758;5.076;2023-10-19T04:07:58;27.38;;;19.15;;
74162;SDS011;62515;52.758;5.076;2023-10-19T04:10:25;27.33;;;18.08;;
74162;SDS011;62515;52.758;5.076;2023-10-19T04:12:51;27.98;;;19.42;;
74162;SDS011;62515;52.758;5.076;2023-10-19T04:15:19;28.52;;;19.67;;
74162;SDS011;62515;52.758;5.076;2023-10-19T04:17:47;32.38;;;20.00;;
74162;SDS011;62515;52.758;5.076;2023-10-19T04:20:15;28.42;;;19.55;;
74162;SDS011;62515;52.758;5.076;2023-10-19T04:22:43;30.75;;;20.70;;
74162;SDS011;62515;52.758;5.076;2023-10-19T04:25:10;32.78;;;20.48;;
74162;SDS011;62515;52.758;5.076;2023-10-19T04:27:36;37.53;;;21.08;;
74162;SDS011;62515;52.758;5.076;2023-10-19T04:30:03;32.13;;;22.13;;
74162;SDS011;62515;52.758;5.076;2023-10-19T04:32:32;35.38;;;20.92;;
74162;SDS011;62515;52.758;5.076;2023-10-19T04:34:59;35.85;;;20.60;;
74162;SDS011;62515;52.758;5.076;2023-10-19T04:37:26;33.38;;;21.15;;
74162;SDS011;62515;52.758;5.076;2023-10-19T04:39:52;33.92;;;19.98;;
74162;SDS011;62515;52.758;5.076;2023-10-19T04:42:19;31.48;;;18.98;;
74162;SDS011;62515;52.758;5.076;2023-10-19T04:44:46;36.30;;;24.45;;
74162;SDS011;62515;52.758;5.076;2023-10-19T04:47:12;34.78;;;20.15;;
74162;SDS011;62515;52.758;5.076;2023-10-19T04:49:41;34.42;;;20.90;;
74162;SDS011;62515;52.758;5.076;2023-10-19T04:52:07;36.83;;;21.67;;
74162;SDS011;62515;52.758;5.076;2023-10-19T04:54:34;37.78;;;21.67;;
74162;SDS011;62515;52.758;5.076;2023-10-19T04:57:01;33.92;;;20.60;;
74162;SDS011;62515;52.758;5.076;2023-10-19T04:59:28;32.58;;;20.58;;
74162;SDS011;62515;52.758;5.076;2023-10-19T05:01:54;32.88;;;20.10;;
74162;SDS011;62515;52.758;5.076;2023-10-19T05:04:24;44.22;;;21.45;;
74162;SDS011;62515;52.758;5.076;2023-10-19T05:06:52;42.55;;;20.75;;
74162;SDS011;62515;52.758;5.076;2023-10-19T05:09:19;36.47;;;20.52;;
74162;SDS011;62515;52.758;5.076;2023-10-19T05:11:45;35.55;;;19.80;;
74162;SDS011;62515;52.758;5.076;2023-10-19T05:14:12;37.05;;;20.15;;
74162;SDS011;62515;52.758;5.076;2023-10-19T05:16:39;29.33;;;19.60;;
74162;SDS011;62515;52.758;5.076;2023-10-19T05:19:06;28.13;;;16.10;;
74162;SDS011;62515;52.758;5.076;2023-10-19T05:21:33;27.27;;;20.05;;
74162;SDS011;62515;52.758;5.076;2023-10-19T05:24:01;32.58;;;24.30;;
74162;SDS011;62515;52.758;5.076;2023-10-19T05:26:28;43.88;;;39.25;;
74162;SDS011;62515;52.758;5.076;2023-10-19T05:28:55;34.10;;;19.50;;
74162;SDS011;62515;52.758;5.076;2023-10-19T05:31:21;34.08;;;18.58;;
74162;SDS011;62515;52.758;5.076;2023-10-19T05:33:48;26.00;;;17.98;;
74162;SDS011;62515;52.758;5.076;2023-10-19T05:36:15;31.23;;;19.30;;
74162;SDS011;62515;52.758;5.076;2023-10-19T05:38:42;32.15;;;20.67;;
74162;SDS011;62515;52.758;5.076;2023-10-19T05:41:11;29.23;;;20.58;;
74162;SDS011;62515;52.758;5.076;2023-10-19T05:43:38;28.98;;;20.45;;
74162;SDS011;62515;52.758;5.076;2023-10-19T05:46:05;28.35;;;20.65;;
74162;SDS011;62515;52.758;5.076;2023-10-19T05:48:31;22.70;;;17.95;;
74162;SDS011;62515;52.758;5.076;2023-10-19T05:50:58;27.98;;;22.00;;
74162;SDS011;62515;52.758;5.076;2023-10-19T05:53:25;23.42;;;19.05;;
74162;SDS011;62515;52.758;5.076;2023-10-19T05:55:51;29.80;;;26.35;;
74162;SDS011;62515;52.758;5.076;2023-10-19T05:58:20;27.20;;;20.17;;
74162;SDS011;62515;52.758;5.076;2023-10-19T06:00:47;28.58;;;19.58;;
74162;SDS011;62515;52.758;5.076;2023-10-19T06:03:13;25.80;;;19.52;;
74162;SDS011;62515;52.758;5.076;2023-10-19T06:05:40;25.65;;;20.05;;
74162;SDS011;62515;52.758;5.076;2023-10-19T06:08:07;21.88;;;17.63;;
74162;SDS011;62515;52.758;5.076;2023-10-19T06:10:34;27.30;;;19.00;;
74162;SDS011;62515;52.758;5.076;2023-10-19T06:13:01;22.10;;;17.65;;
74162;SDS011;62515;52.758;5.076;2023-10-19T06:15:30;31.45;;;20.48;;
74162;SDS011;62515;52.758;5.076;2023-10-19T06:17:57;23.70;;;17.90;;
74162;SDS011;62515;52.758;5.076;2023-10-19T06:20:23;25.52;;;16.73;;
74162;SDS011;62515;52.758;5.076;2023-10-19T06:22:50;26.13;;;19.48;;
74162;SDS011;62515;52.758;5.076;2023-10-19T06:25:18;25.95;;;16.17;;
74162;SDS011;62515;52.758;5.076;2023-10-19T06:27:46;24.05;;;18.33;;
74162;SDS011;62515;52.758;5.076;2023-10-19T06:30:14;22.38;;;18.85;;
74162;SDS011;62515;52.758;5.076;2023-10-19T06:32:43;21.92;;;18.02;;
74162;SDS011;62515;52.758;5.076;2023-10-19T06:35:12;25.33;;;16.25;;
74162;SDS011;62515;52.758;5.076;2023-10-19T06:37:38;20.13;;;16.35;;
74162;SDS011;62515;52.758;5.076;2023-10-19T06:40:05;21.13;;;15.95;;
74162;SDS011;62515;52.758;5.076;2023-10-19T06:42:33;19.75;;;16.60;;
74162;SDS011;62515;52.758;5.076;2023-10-19T06:45:00;29.17;;;24.17;;
74162;SDS011;62515;52.758;5.076;2023-10-19T06:47:27;19.00;;;15.25;;
74162;SDS011;62515;52.758;5.076;2023-10-19T06:49:55;22.38;;;15.30;;
74162;SDS011;62515;52.758;5.076;2023-10-19T06:52:22;19.25;;;17.05;;
74162;SDS011;62515;52.758;5.076;2023-10-19T06:54:48;22.73;;;15.77;;
74162;SDS011;62515;52.758;5.076;2023-10-19T06:57:15;21.35;;;14.93;;
74162;SDS011;62515;52.758;5.076;2023-10-19T06:59:42;22.50;;;14.52;;
74162;SDS011;62515;52.758;5.076;2023-10-19T07:02:08;18.50;;;16.60;;
74162;SDS011;62515;52.758;5.076;2023-10-19T07:04:35;23.08;;;21.00;;
74162;SDS011;62515;52.758;5.076;2023-10-19T07:07:03;15.95;;;14.23;;
74162;SDS011;62515;52.758;5.076;2023-10-19T07:09:30;21.55;;;13.65;;
74162;SDS011;62515;52.758;5.076;2023-10-19T07:11:57;18.45;;;14.52;;
74162;SDS011;62515;52.758;5.076;2023-10-19T07:14:23;17.83;;;16.13;;
74162;SDS011;62515;52.758;5.076;2023-10-19T07:16:50;17.85;;;14.90;;
74162;SDS011;62515;52.758;5.076;2023-10-19T07:19:17;20.42;;;12.02;;
74162;SDS011;62515;52.758;5.076;2023-10-19T07:21:44;16.50;;;12.73;;
74162;SDS011;62515;52.758;5.076;2023-10-19T07:24:12;18.55;;;16.67;;
74162;SDS011;62515;52.758;5.076;2023-10-19T07:26:39;19.80;;;13.73;;
74162;SDS011;62515;52.758;5.076;2023-10-19T07:29:05;14.52;;;12.55;;
74162;SDS011;62515;52.758;5.076;2023-10-19T07:31:32;15.20;;;12.75;;
74162;SDS011;62515;52.758;5.076;2023-10-19T07:33:59;14.35;;;12.88;;
74162;SDS011;62515;52.758;5.076;2023-10-19T07:36:26;18.17;;;15.73;;
74162;SDS011;62515;52.758;5.076;2023-10-19T07:38:52;16.10;;;12.65;;
74162;SDS011;62515;52.758;5.076;2023-10-19T07:41:20;15.52;;;13.88;;
74162;SDS011;62515;52.758;5.076;2023-10-19T07:43:47;16.05;;;14.65;;
74162;SDS011;62515;52.758;5.076;2023-10-19T07:46:14;15.77;;;14.35;;
74162;SDS011;62515;52.758;5.076;2023-10-19T07:48:40;17.92;;;16.30;;
74162;SDS011;62515;52.758;5.076;2023-10-19T07:51:08;18.10;;;15.43;;
74162;SDS011;62515;52.758;5.076;2023-10-19T07:53:34;17.65;;;16.02;;
74162;SDS011;62515;52.758;5.076;2023-10-19T07:56:01;17.52;;;16.17;;
74162;SDS011;62515;52.758;5.076;2023-10-19T07:58:29;16.20;;;14.70;;
74162;SDS011;62515;52.758;5.076;2023-10-19T08:00:56;16.60;;;15.13;;
74162;SDS011;62515;52.758;5.076;2023-10-19T08:03:23;15.07;;;13.23;;
74162;SDS011;62515;52.758;5.076;2023-10-19T08:05:50;13.80;;;12.45;;
74162;SDS011;62515;52.758;5.076;2023-10-19T08:08:16;14.05;;;12.75;;
74162;SDS011;62515;52.758;5.076;2023-10-19T08:10:43;12.85;;;11.60;;
74162;SDS011;62515;52.758;5.076;2023-10-19T08:13:10;12.07;;;10.75;;
74162;SDS011;62515;52.758;5.076;2023-10-19T08:15:38;13.80;;;12.70;;
74162;SDS011;62515;52.758;5.076;2023-10-19T08:18:05;12.35;;;11.23;;
74162;SDS011;62515;52.758;5.076;2023-10-19T08:20:32;14.00;;;10.52;;
74162;SDS011;62515;52.758;5.076;2023-10-19T08:22:59;12.75;;;11.75;;
74162;SDS011;62515;52.758;5.076;2023-10-19T08:25:27;12.90;;;11.90;;
74162;SDS011;62515;52.758;5.076;2023-10-19T08:28:02;12.95;;;11.65;;
74162;SDS011;62515;52.758;5.076;2023-10-19T08:30:29;9.52;;;8.77;;
74162;SDS011;62515;52.758;5.076;2023-10-19T08:32:57;16.40;;;14.88;;
74162;SDS011;62515;52.758;5.076;2023-10-19T08:35:24;10.80;;;9.57;;
74162;SDS011;62515;52.758;5.076;2023-10-19T08:37:51;10.30;;;9.27;;
74162;SDS011;62515;52.758;5.076;2023-10-19T08:40:19;11.10;;;10.18;;
74162;SDS011;62515;52.758;5.076;2023-10-19T08:42:46;12.00;;;10.85;;
74162;SDS011;62515;52.758;5.076;2023-10-19T08:45:13;16.95;;;15.55;;
74162;SDS011;62515;52.758;5.076;2023-10-19T08:47:41;16.13;;;11.88;;
74162;SDS011;62515;52.758;5.076;2023-10-19T08:50:13;9.77;;;8.23;;
74162;SDS011;62515;52.758;5.076;2023-10-19T08:52:40;11.27;;;7.22;;
74162;SDS011;62515;52.758;5.076;2023-10-19T08:55:08;31.25;;;28.20;;
74162;SDS011;62515;52.758;5.076;2023-10-19T08:57:35;14.45;;;13.32;;
74162;SDS011;62515;52.758;5.076;2023-10-19T09:00:03;11.75;;;10.55;;
74162;SDS011;62515;52.758;5.076;2023-10-19T09:02:30;18.13;;;16.23;;
74162;SDS011;62515;52.758;5.076;2023-10-19T09:04:57;10.57;;;9.57;;
74162;SDS011;62515;52.758;5.076;2023-10-19T09:07:25;11.80;;;10.48;;
74162;SDS011;62515;52.758;5.076;2023-10-19T09:09:52;11.23;;;10.02;;
74162;SDS011;62515;52.758;5.076;2023-10-19T09:12:18;15.18;;;14.02;;
74162;SDS011;62515;52.758;5.076;2023-10-19T09:14:45;11.82;;;10.70;;
74162;SDS011;62515;52.758;5.076;2023-10-19T09:17:12;10.13;;;9.23;;
74162;SDS011;62515;52.758;5.076;2023-10-19T09:19:39;11.00;;;9.23;;
74162;SDS011;62515;52.758;5.076;2023-10-19T09:22:07;11.80;;;10.70;;
74162;SDS011;62515;52.758;5.076;2023-10-19T09:24:36;12.93;;;8.15;;
74162;SDS011;62515;52.758;5.076;2023-10-19T09:27:03;8.93;;;8.05;;
74162;SDS011;62515;52.758;5.076;2023-10-19T09:29:30;10.27;;;9.23;;
74162;SDS011;62515;52.758;5.076;2023-10-19T09:31:58;10.57;;;8.32;;
74162;SDS011;62515;52.758;5.076;2023-10-19T09:34:25;10.43;;;7.60;;
74162;SDS011;62515;52.758;5.076;2023-10-19T09:36:52;8.85;;;8.05;;
74162;SDS011;62515;52.758;5.076;2023-10-19T09:39:19;6.82;;;6.22;;
74162;SDS011;62515;52.758;5.076;2023-10-19T09:41:47;8.98;;;7.13;;
74162;SDS011;62515;52.758;5.076;2023-10-19T09:44:14;7.93;;;6.95;;
74162;SDS011;62515;52.758;5.076;2023-10-19T09:46:46;15.13;;;13.60;;
74162;SDS011;62515;52.758;5.076;2023-10-19T09:49:15;11.20;;;10.18;;
74162;SDS011;62515;52.758;5.076;2023-10-19T09:51:41;8.30;;;7.65;;
74162;SDS011;62515;52.758;5.076;2023-10-19T09:54:30;11.75;;;10.57;;
74162;SDS011;62515;52.758;5.076;2023-10-19T09:57:10;15.23;;;14.18;;
74162;SDS011;62515;52.758;5.076;2023-10-19T09:59:40;17.00;;;15.82;;
74162;SDS011;62515;52.758;5.076;2023-10-19T10:02:10;11.20;;;10.32;;
74162;SDS011;62515;52.758;5.076;2023-10-19T10:04:39;21.52;;;20.13;;
74162;SDS011;62515;52.758;5.076;2023-10-19T10:07:06;13.77;;;12.77;;
74162;SDS011;62515;52.758;5.076;2023-10-19T10:09:34;17.92;;;16.45;;
74162;SDS011;62515;52.758;5.076;2023-10-19T10:12:16;19.88;;;18.42;;
74162;SDS011;62515;52.758;5.076;2023-10-19T10:14:57;21.17;;;19.23;;
74162;SDS011;62515;52.758;5.076;2023-10-19T10:17:25;11.27;;;10.30;;
74162;SDS011;62515;52.758;5.076;2023-10-19T10:19:56;12.77;;;9.30;;
74162;SDS011;62515;52.758;5.076;2023-10-19T10:23:15;11.35;;;9.25;;
74162;SDS011;62515;52.758;5.076;2023-10-19T10:25:45;14.15;;;13.13;;
74162;SDS011;62515;52.758;5.076;2023-10-19T10:28:13;15.85;;;14.38;;
74162;SDS011;62515;52.758;5.076;2023-10-19T10:33:38;14.88;;;13.50;;
74162;SDS011;62515;52.758;5.076;2023-10-19T10:36:06;16.17;;;14.95;;
74162;SDS011;62515;52.758;5.076;2023-10-19T10:38:33;21.48;;;14.10;;
74162;SDS011;62515;52.758;5.076;2023-10-19T10:41:00;9.88;;;8.00;;
74162;SDS011;62515;52.758;5.076;2023-10-19T10:43:29;16.73;;;15.32;;
74162;SDS011;62515;52.758;5.076;2023-10-19T10:46:03;21.33;;;11.30;;
74162;SDS011;62515;52.758;5.076;2023-10-19T10:48:30;20.90;;;8.07;;
74162;SDS011;62515;52.758;5.076;2023-10-19T10:50:57;21.60;;;7.35;;
74162;SDS011;62515;52.758;5.076;2023-10-19T10:53:25;20.95;;;7.40;;
74162;SDS011;62515;52.758;5.076;2023-10-19T10:55:52;14.80;;;6.43;;
74162;SDS011;62515;52.758;5.076;2023-10-19T10:58:19;29.58;;;11.07;;
74162;SDS011;62515;52.758;5.076;2023-10-19T11:00:47;23.45;;;7.07;;
74162;SDS011;62515;52.758;5.076;2023-10-19T11:03:14;18.85;;;9.07;;
74162;SDS011;62515;52.758;5.076;2023-10-19T11:05:41;18.90;;;12.07;;
74162;SDS011;62515;52.758;5.076;2023-10-19T11:08:08;14.52;;;11.38;;
74162;SDS011;62515;52.758;5.076;2023-10-19T11:10:37;14.20;;;6.72;;
74162;SDS011;62515;52.758;5.076;2023-10-19T11:13:04;22.08;;;11.30;;
74162;SDS011;62515;52.758;5.076;2023-10-19T11:15:31;10.88;;;6.05;;
74162;SDS011;62515;52.758;5.076;2023-10-19T11:18:00;27.25;;;9.85;;
74162;SDS011;62515;52.758;5.076;2023-10-19T11:20:27;12.43;;;8.80;;
74162;SDS011;62515;52.758;5.076;2023-10-19T11:22:54;16.35;;;11.80;;
74162;SDS011;62515;52.758;5.076;2023-10-19T11:25:23;9.57;;;6.40;;
74162;SDS011;62515;52.758;5.076;2023-10-19T11:27:51;19.25;;;17.48;;
74162;SDS011;62515;52.758;5.076;2023-10-19T11:30:23;10.63;;;6.32;;
74162;SDS011;62515;52.758;5.076;2023-10-19T11:32:50;14.65;;;13.02;;
74162;SDS011;62515;52.758;5.076;2023-10-19T11:35:19;19.77;;;14.63;;
74162;SDS011;62515;52.758;5.076;2023-10-19T11:37:46;14.57;;;11.27;;
74162;SDS011;62515;52.758;5.076;2023-10-19T11:40:14;15.50;;;11.57;;
74162;SDS011;62515;52.758;5.076;2023-10-19T11:42:40;15.82;;;9.38;;
74162;SDS011;62515;52.758;5.076;2023-10-19T11:45:07;15.25;;;10.63;;
74162;SDS011;62515;52.758;5.076;2023-10-19T11:47:35;12.48;;;9.05;;
74162;SDS011;62515;52.758;5.076;2023-10-19T11:50:01;15.98;;;8.95;;
74162;SDS011;62515;52.758;5.076;2023-10-19T11:52:30;13.57;;;9.82;;
74162;SDS011;62515;52.758;5.076;2023-10-19T11:54:57;17.48;;;15.68;;
74162;SDS011;62515;52.758;5.076;2023-10-19T11:57:24;16.13;;;10.07;;
74162;SDS011;62515;52.758;5.076;2023-10-19T11:59:51;19.67;;;17.77;;
74162;SDS011;62515;52.758;5.076;2023-10-19T12:02:19;14.88;;;12.98;;
74162;SDS011;62515;52.758;5.076;2023-10-19T12:04:46;14.05;;;11.15;;
74162;SDS011;62515;52.758;5.076;2023-10-19T12:07:13;14.25;;;7.75;;
74162;SDS011;62515;52.758;5.076;2023-10-19T12:09:41;16.33;;;7.53;;
74162;SDS011;62515;52.758;5.076;2023-10-19T12:12:08;18.05;;;12.30;;
74162;SDS011;62515;52.758;5.076;2023-10-19T12:14:34;23.45;;;14.05;;
74162;SDS011;62515;52.758;5.076;2023-10-19T12:17:01;15.77;;;10.70;;
74162;SDS011;62515;52.758;5.076;2023-10-19T12:19:29;18.23;;;13.10;;
74162;SDS011;62515;52.758;5.076;2023-10-19T12:21:56;17.10;;;11.57;;
74162;SDS011;62515;52.758;5.076;2023-10-19T12:24:22;15.57;;;10.73;;
74162;SDS011;62515;52.758;5.076;2023-10-19T12:26:50;16.83;;;12.73;;
74162;SDS011;62515;52.758;5.076;2023-10-19T12:29:17;19.33;;;11.63;;
74162;SDS011;62515;52.758;5.076;2023-10-19T12:31:44;24.92;;;10.18;;
74162;SDS011;62515;52.758;5.076;2023-10-19T12:34:11;16.73;;;10.05;;
74162;SDS011;62515;52.758;5.076;2023-10-19T12:36:38;22.42;;;11.15;;
74162;SDS011;62515;52.758;5.076;2023-10-19T12:39:05;19.65;;;9.43;;
74162;SDS011;62515;52.758;5.076;2023-10-19T12:41:34;20.10;;;11.45;;
74162;SDS011;62515;52.758;5.076;2023-10-19T12:44:02;29.08;;;9.70;;
74162;SDS011;62515;52.758;5.076;2023-10-19T12:46:29;25.83;;;11.20;;
74162;SDS011;62515;52.758;5.076;2023-10-19T12:48:56;30.05;;;11.15;;
74162;SDS011;62515;52.758;5.076;2023-10-19T12:51:23;35.45;;;11.35;;
74162;SDS011;62515;52.758;5.076;2023-10-19T12:53:51;21.90;;;7.80;;
74162;SDS011;62515;52.758;5.076;2023-10-19T12:56:18;26.73;;;11.90;;
74162;SDS011;62515;52.758;5.076;2023-10-19T12:58:45;26.27;;;12.65;;
74162;SDS011;62515;52.758;5.076;2023-10-19T13:01:13;14.82;;;9.68;;
74162;SDS011;62515;52.758;5.076;2023-10-19T13:03:40;20.35;;;12.93;;
74162;SDS011;62515;52.758;5.076;2023-10-19T13:06:07;13.68;;;7.68;;
74162;SDS011;62515;52.758;5.076;2023-10-19T13:08:34;21.98;;;11.68;;
74162;SDS011;62515;52.758;5.076;2023-10-19T13:11:00;26.17;;;12.18;;
74162;SDS011;62515;52.758;5.076;2023-10-19T13:13:43;17.40;;;11.68;;
74162;SDS011;62515;52.758;5.076;2023-10-19T13:16:09;20.70;;;11.15;;
74162;SDS011;62515;52.758;5.076;2023-10-19T13:18:38;16.63;;;9.63;;
74162;SDS011;62515;52.758;5.076;2023-10-19T13:21:05;21.45;;;6.72;;
74162;SDS011;62515;52.758;5.076;2023-10-19T13:23:32;15.77;;;11.43;;
74162;SDS011;62515;52.758;5.076;2023-10-19T13:25:59;17.38;;;8.35;;
74162;SDS011;62515;52.758;5.076;2023-10-19T13:28:26;21.58;;;11.55;;
74162;SDS011;62515;52.758;5.076;2023-10-19T13:30:53;17.15;;;10.95;;
74162;SDS011;62515;52.758;5.076;2023-10-19T13:33:21;23.95;;;9.73;;
74162;SDS011;62515;52.758;5.076;2023-10-19T13:35:49;20.17;;;10.73;;
74162;SDS011;62515;52.758;5.076;2023-10-19T13:38:17;20.35;;;11.57;;
74162;SDS011;62515;52.758;5.076;2023-10-19T13:40:45;27.67;;;11.80;;
74162;SDS011;62515;52.758;5.076;2023-10-19T13:43:13;23.27;;;10.63;;
74162;SDS011;62515;52.758;5.076;2023-10-19T13:45:41;23.55;;;12.57;;
74162;SDS011;62515;52.758;5.076;2023-10-19T13:48:08;19.17;;;11.00;;
74162;SDS011;62515;52.758;5.076;2023-10-19T13:50:40;24.17;;;12.73;;
74162;SDS011;62515;52.758;5.076;2023-10-19T13:53:09;19.15;;;6.75;;
74162;SDS011;62515;52.758;5.076;2023-10-19T13:55:36;18.77;;;6.68;;
74162;SDS011;62515;52.758;5.076;2023-10-19T13:58:03;18.42;;;7.28;;
74162;SDS011;62515;52.758;5.076;2023-10-19T14:00:30;18.90;;;11.20;;
74162;SDS011;62515;52.758;5.076;2023-10-19T14:02:56;18.90;;;9.77;;
74162;SDS011;62515;52.758;5.076;2023-10-19T14:05:23;27.13;;;7.45;;
74162;SDS011;62515;52.758;5.076;2023-10-19T14:07:50;24.35;;;7.72;;
74162;SDS011;62515;52.758;5.076;2023-10-19T14:10:19;8.38;;;6.47;;
74162;SDS011;62515;52.758;5.076;2023-10-19T14:12:46;33.92;;;13.52;;
74162;SDS011;62515;52.758;5.076;2023-10-19T14:15:13;23.52;;;11.00;;
74162;SDS011;62515;52.758;5.076;2023-10-19T14:17:41;27.02;;;21.00;;
74162;SDS011;62515;52.758;5.076;2023-10-19T14:20:08;23.60;;;20.88;;
74162;SDS011;62515;52.758;5.076;2023-10-19T14:22:36;24.15;;;21.45;;
74162;SDS011;62515;52.758;5.076;2023-10-19T14:25:03;22.00;;;18.08;;
74162;SDS011;62515;52.758;5.076;2023-10-19T14:27:31;36.40;;;32.45;;
74162;SDS011;62515;52.758;5.076;2023-10-19T14:30:00;30.60;;;24.75;;